Flight Track Log - Related Links

Times and Time Zones

All times are in EDT time to prevent confusion due to time zone crossing. See the SAS4139 flight status page for this flight to view local times or setup timezone preferences in your user account.

Time Position Orientation Groundspeed Altitude Reporting Facility
EDT Latitude Longitude Course Direction KTS MPH feet Rate Location/Type
Tue 01:26:50 AM 62.5610 6.1110 234° Southwest 125 144  Level FlightAware ADS-B
Tue 01:27:03 AM 62.5570 6.0960 240° Southwest 129 148 200 1,875 Climbing FlightAware ADS-B
Tue 01:27:22 AM 62.5520 6.0740 244° Southwest 126 145 1,000 2,108 Climbing FlightAware ADS-B
Tue 01:27:40 AM 62.5470 6.0530 243° Southwest 143 165 1,500 1,622 Climbing FlightAware ADS-B
Tue 01:27:59 AM 62.5410 6.0260 244° Southwest 173 199 2,000 2,118 Climbing FlightAware ADS-B
Tue 01:28:14 AM 62.5360 6.0010 247° West 178 205 2,700 3,081 Climbing FlightAware ADS-B
Tue 01:28:36 AM 62.5260 5.9690 236° Southwest 185 213 3,900 3,103 Climbing FlightAware ADS-B
Tue 01:28:43 AM 62.5210 5.9640 205° Southwest 192 221 4,200 2,500 Climbing FlightAware ADS-B
Tue 01:28:48 AM 62.5170 5.9620 193° South 200 230 4,400 2,211 Climbing FlightAware ADS-B
Tue 01:29:02 AM 62.5020 5.9580 187° South 223 257 4,900 2,333 Climbing FlightAware ADS-B
Tue 01:29:24 AM 62.4790 5.9540 185° South 251 289 5,800 2,400 Climbing FlightAware ADS-B
Tue 01:29:37 AM 62.4640 5.9490 189° South 263 303 6,300 3,188 Climbing FlightAware ADS-B
Tue 01:29:56 AM 62.4400 5.9400 190° South 272 313 7,500 3,667 Climbing FlightAware ADS-B
Tue 01:30:13 AM 62.4180 5.9320 190° South 279 321 8,500 3,568 Climbing FlightAware ADS-B
Tue 01:30:33 AM 62.3930 5.9230 189° South 282 325 9,700 2,943 Climbing FlightAware ADS-B
Tue 01:31:06 AM 62.3490 5.9070 190° South 314 361 11,100 2,957 Climbing FlightAware ADS-B
Tue 01:31:42 AM 62.2960 5.8890 189° South 326 375 13,100 3,205 Climbing FlightAware ADS-B
Tue 01:32:19 AM 62.2400 5.8690 189° South 336 387 15,000 3,250 Climbing FlightAware ADS-B
Tue 01:32:54 AM 62.1860 5.8500 189° South 340 391 17,000 3,265 Climbing FlightAware ADS-B
Tue 01:33:27 AM 62.1350 5.8330 189° South 346 398 18,700 2,957 Climbing FlightAware ADS-B
Tue 01:34:03 AM 62.0770 5.8130 189° South 362 417 20,400 2,959 Climbing FlightAware ADS-B
Tue 01:34:40 AM 62.0140 5.7910 189° South 375 432 22,300 3,086 Climbing FlightAware ADS-B
Tue 01:35:13 AM 61.9570 5.7710 189° South 386 444 24,000 3,508 Climbing FlightAware ADS-B
Tue 01:35:45 AM 61.9010 5.7520 189° South 377 434 26,100 3,296 Climbing FlightAware ADS-B
Tue 01:36:24 AM 61.8340 5.7290 189° South 378 435 27,900 1,541 Climbing FlightAware ADS-B
Tue 01:36:59 AM 61.7750 5.7090 189° South 376 433 28,000 85 Climbing FlightAware ADS-B
Tue 01:37:35 AM 61.7120 5.6870 189° South 376 433 28,000  Level FlightAware ADS-B
Tue 01:38:11 AM 61.6520 5.6670 189° South 376 433 28,000  Level FlightAware ADS-B
Tue 01:38:42 AM 61.5980 5.6490 189° South 376 433 28,000  Level FlightAware ADS-B
Tue 01:39:20 AM 61.5330 5.6270 189° South 375 432 28,000  Level FlightAware ADS-B
Tue 01:39:55 AM 61.4730 5.6070 189° South 375 432 28,000  Level FlightAware ADS-B
Tue 01:40:31 AM 61.4120 5.5870 189° South 375 432 28,000  Level FlightAware ADS-B
Tue 01:41:03 AM 61.3560 5.5690 189° South 375 432 28,000  Level FlightAware ADS-B
Tue 01:41:40 AM 61.2930 5.5480 189° South 375 432 28,000 -917 Level FlightAware ADS-B
Tue 01:42:15 AM 61.2330 5.5280 189° South 383 441 26,900 -1,941 Descending FlightAware ADS-B
Tue 01:42:48 AM 61.1750 5.5090 189° South 380 437 25,800 -2,057 Descending FlightAware ADS-B
Tue 01:43:25 AM 61.1140 5.4890 189° South 375 432 24,500 -2,137 Descending FlightAware ADS-B
Tue 01:44:01 AM 61.0500 5.4690 189° South 368 423 23,200 -2,113 Descending FlightAware ADS-B
Tue 01:44:36 AM 60.9920 5.4510 189° South 364 419 22,000 -2,029 Descending FlightAware ADS-B
Tue 01:45:09 AM 60.9370 5.4420 185° South 358 412 20,900 -2,000 Descending FlightAware ADS-B
Tue 01:45:51 AM 60.8730 5.4320 184° South 343 395 19,500 -2,026 Descending FlightAware ADS-B
Tue 01:46:26 AM 60.8130 5.4220 185° South 338 389 18,300 -2,057 Descending FlightAware ADS-B
Tue 01:47:01 AM 60.7570 5.4140 184° South 339 390 17,100 -1,886 Descending FlightAware ADS-B
Tue 01:47:36 AM 60.7050 5.4060 184° South 326 375 16,100 -1,886 Descending FlightAware ADS-B
Tue 01:48:11 AM 60.6500 5.3970 185° South 321 369 14,900 -1,886 Descending FlightAware ADS-B
Tue 01:48:46 AM 60.6010 5.3890 185° South 325 374 13,900 -1,775 Descending FlightAware ADS-B
Tue 01:49:22 AM 60.5470 5.3810 184° South 320 368 12,800 -1,859 Descending FlightAware ADS-B
Tue 01:49:57 AM 60.4930 5.3720 185° South 317 365 11,700 -1,727 Descending FlightAware ADS-B
Tue 01:50:28 AM 60.4510 5.3660 184° South 312 359 10,900 -1,629 Descending FlightAware ADS-B
Tue 01:51:07 AM 60.3940 5.3680 179° South 307 353 9,800 -1,627 Descending FlightAware ADS-B
Tue 01:51:27 AM 60.3660 5.3800 168° South 295 339 9,300 -1,600 Descending FlightAware ADS-B
Tue 01:51:37 AM 60.3540 5.3850 168° South 294 338 9,000 -1,714 Descending FlightAware ADS-B
Tue 01:52:02 AM 60.3170 5.4000 169° South 300 345 8,300 -1,600 Descending FlightAware ADS-B
Tue 01:52:22 AM 60.2930 5.4100 168° South 297 342 7,800 -900 Descending FlightAware ADS-B
Tue 01:52:42 AM 60.2650 5.4210 169° South 281 323 7,700 -514 Descending FlightAware ADS-B
Tue 01:52:57 AM 60.2460 5.4290 168° South 262 302 7,500 -686 Descending FlightAware ADS-B
Tue 01:53:17 AM 60.2210 5.4380 170° South 261 300 7,300 -686 Descending FlightAware ADS-B
Tue 01:53:32 AM 60.2050 5.4450 168° South 248 285 7,100 -857 Descending FlightAware ADS-B
Tue 01:53:52 AM 60.1820 5.4540 169° South 245 282 6,800 -1,067 Descending FlightAware ADS-B
Tue 01:54:17 AM 60.1540 5.4650 169° South 244 281 6,300 -1,024 Descending FlightAware ADS-B
Tue 01:54:33 AM 60.1420 5.4690 171° South 244 281 6,100 -1,067 Descending FlightAware ADS-B
Tue 01:55:02 AM 60.1020 5.4850 169° South 246 283 5,500 -1,313 Descending FlightAware ADS-B
Tue 01:55:37 AM 60.0650 5.4770 186° South 229 264 4,700 -1,333 Descending FlightAware ADS-B
Tue 01:55:47 AM 60.0580 5.4610 229° Southwest 225 259 4,500 -1,125 Descending FlightAware ADS-B
Tue 01:55:53 AM 60.0560 5.4520 246° West 224 258 4,400 -1,600 Descending FlightAware ADS-B
Tue 01:56:02 AM 60.0530 5.4320 253° West 219 252 4,100 -2,276 Descending FlightAware ADS-B
Tue 01:56:22 AM 60.0500 5.3920 261° West 226 260 3,300 -2,222 Descending FlightAware ADS-B
Tue 01:56:29 AM 60.0510 5.3810 280° West 229 264 3,100 -1,600 Descending FlightAware ADS-B
Tue 01:56:37 AM 60.0560 5.3640 301° West 225 259 2,900 -1,385 Descending FlightAware ADS-B
Tue 01:56:42 AM 60.0590 5.3570 311° West 221 254 2,800 -240 Descending FlightAware ADS-B
Tue 01:57:02 AM 60.0740 5.3310 319° Northwest 199 229 2,800  Level FlightAware ADS-B
Tue 01:57:17 AM 60.0840 5.3130 318° Northwest 192 221 2,800  Level FlightAware ADS-B
Tue 01:57:37 AM 60.0970 5.2900 319° Northwest 188 216 2,800  Level FlightAware ADS-B
Tue 01:57:42 AM 60.1010 5.2850 328° Northwest 190 219 2,800  Level FlightAware ADS-B
Tue 01:57:52 AM 60.1090 5.2790 340° North 192 221 2,800  Level FlightAware ADS-B
Tue 01:58:12 AM 60.1260 5.2730 350° North 192 221 2,800  Level FlightAware ADS-B
Tue 01:58:32 AM 60.1440 5.2680 352° North 176 203 2,800 -343 Level FlightAware ADS-B
Tue 01:58:47 AM 60.1550 5.2640 350° North 173 199 2,600 -1,029 Descending FlightAware ADS-B
Tue 01:59:07 AM 60.1710 5.2590 351° North 167 192 2,200 -1,050 Descending FlightAware ADS-B
Tue 01:59:27 AM 60.1870 5.2540 351° North 169 194 1,900 -833 Descending FlightAware ADS-B
Tue 01:59:43 AM 60.1980 5.2500 350° North 165 190 1,700 -833 Descending FlightAware ADS-B
Tue 02:00:03 AM 60.2100 5.2460 351° North 164 189 1,400 -923 Descending FlightAware ADS-B
Tue 02:00:22 AM 60.2260 5.2410 351° North 142 163 1,100 -800 Descending FlightAware ADS-B
Tue 02:00:48 AM 60.2410 5.2360 351° North 127 146 800 -750 Descending FlightAware ADS-B
Tue 02:01:02 AM 60.2500 5.2330 351° North 121 139 600 -706 Descending FlightAware ADS-B
Tue 02:01:22 AM 60.2610 5.2290 350° North 123 142 400 -686 Descending FlightAware ADS-B
Tue 02:01:37 AM 60.2700 5.2260 351° North 122 140 200 -800 Descending FlightAware ADS-B
Tue 02:01:58 AM 60.2800 5.2230 352° North 122 140 -571 Descending FlightAware ADS-B
Tue 02:02:17 AM 60.2890 5.2200 351° North 113 130  Level FlightAware ADS-B

Login

Don't have an account? Register now (free) for customized features, flight alerts, and more!